createdAt,value
2022-12-23T00:01:49.217Z,17.33
2022-12-23T00:04:34.980Z,20.05
2022-12-23T00:07:20.500Z,19.40
2022-12-23T00:10:06.223Z,19.15
2022-12-23T00:13:10.034Z,20.00
2022-12-23T00:16:08.330Z,20.08
2022-12-23T00:18:54.507Z,19.83
2022-12-23T00:21:39.933Z,19.60
2022-12-23T00:24:25.165Z,19.63
2022-12-23T00:27:10.672Z,20.85
2022-12-23T00:29:56.491Z,18.98
2022-12-23T00:32:41.966Z,19.40
2022-12-23T00:35:31.175Z,20.30
2022-12-23T00:38:38.209Z,20.55
2022-12-23T00:41:42.249Z,21.17
2022-12-23T00:44:27.779Z,20.45
2022-12-23T00:47:33.103Z,23.42
2022-12-23T00:50:18.554Z,20.95
2022-12-23T00:53:04.678Z,19.33
2022-12-23T00:55:51.074Z,19.75
2022-12-23T00:58:36.544Z,21.30
2022-12-23T01:01:40.421Z,20.25
2022-12-23T01:04:44.998Z,17.30
2022-12-23T01:07:30.699Z,17.08
2022-12-23T01:10:16.415Z,17.30
2022-12-23T01:13:01.819Z,16.60
2022-12-23T01:15:47.852Z,15.52
2022-12-23T01:18:37.654Z,15.82
2022-12-23T01:21:23.649Z,14.98
2022-12-23T01:24:09.452Z,14.00
2022-12-23T01:26:55.156Z,12.73
2022-12-23T01:29:41.060Z,14.13
2022-12-23T01:32:26.399Z,12.80
2022-12-23T01:35:11.965Z,13.93
2022-12-23T01:37:57.343Z,14.55
2022-12-23T01:40:45.256Z,14.15
2022-12-23T01:43:46.772Z,14.98
2022-12-23T01:49:18.443Z,11.65
2022-12-23T01:52:04.193Z,10.50
2022-12-23T01:54:49.861Z,9.85
2022-12-23T01:57:40.233Z,11.07
2022-12-23T02:00:46.232Z,9.73
2022-12-23T02:03:44.689Z,9.02
2022-12-23T02:06:57.099Z,9.50
2022-12-23T02:09:42.772Z,10.52
2022-12-23T02:12:43.383Z,10.20
2022-12-23T02:15:56.373Z,10.15
2022-12-23T02:19:20.965Z,12.27
2022-12-23T02:22:37.014Z,11.30
2022-12-23T02:25:44.175Z,13.35
2022-12-23T02:28:51.395Z,12.70
2022-12-23T02:31:54.546Z,14.50
2022-12-23T02:34:54.583Z,13.00
2022-12-23T02:38:09.318Z,13.40
2022-12-23T02:41:23.111Z,12.88
2022-12-23T02:44:18.749Z,12.32
2022-12-23T02:47:11.176Z,12.15
2022-12-23T02:50:02.612Z,10.88
2022-12-23T02:52:52.133Z,10.85
2022-12-23T02:55:40.460Z,10.43
2022-12-23T02:58:32.260Z,11.15
2022-12-23T03:01:18.570Z,10.75
2022-12-23T03:04:06.544Z,10.68
2022-12-23T03:06:55.616Z,9.23
2022-12-23T03:10:09.073Z,7.40
2022-12-23T03:13:00.356Z,8.15
2022-12-23T03:16:04.079Z,9.13
2022-12-23T03:18:55.401Z,8.90
2022-12-23T03:21:59.880Z,9.40
2022-12-23T03:25:19.198Z,9.25
2022-12-23T03:28:11.271Z,8.75
2022-12-23T03:31:00.769Z,7.82
2022-12-23T03:33:51.195Z,9.73
2022-12-23T03:36:53.115Z,8.27
2022-12-23T03:39:45.763Z,9.10
2022-12-23T03:42:43.762Z,9.73
2022-12-23T03:45:40.839Z,9.35
2022-12-23T03:48:37.002Z,9.68
2022-12-23T03:51:28.134Z,8.77
2022-12-23T03:54:19.369Z,9.07
2022-12-23T03:57:07.488Z,7.97
2022-12-23T03:59:54.272Z,6.78
2022-12-23T04:02:55.187Z,7.63
2022-12-23T04:05:44.770Z,6.05
2022-12-23T04:08:36.501Z,6.15
2022-12-23T04:11:21.859Z,4.80
2022-12-23T04:14:07.763Z,4.85
2022-12-23T04:16:56.127Z,4.53
2022-12-23T04:19:43.009Z,3.40
2022-12-23T04:22:28.232Z,3.17
2022-12-23T04:25:16.278Z,2.97
2022-12-23T04:28:01.610Z,3.30
2022-12-23T04:30:47.002Z,2.35
2022-12-23T04:33:32.434Z,2.20
2022-12-23T04:36:17.793Z,2.42
2022-12-23T04:39:03.090Z,2.40
2022-12-23T04:41:48.965Z,2.33
2022-12-23T04:44:34.113Z,3.85
2022-12-23T04:47:19.607Z,2.28
2022-12-23T04:50:05.962Z,1.10
2022-12-23T04:52:51.444Z,1.02
2022-12-23T04:55:36.848Z,1.10
2022-12-23T04:58:24.250Z,1.35
2022-12-23T05:01:11.706Z,1.25
2022-12-23T05:03:57.571Z,0.75
2022-12-23T05:06:42.940Z,0.77
2022-12-23T05:09:28.512Z,0.93
2022-12-23T05:12:13.686Z,0.90
2022-12-23T05:14:59.392Z,0.90
2022-12-23T05:17:45.159Z,0.80
2022-12-23T05:20:30.441Z,1.33
2022-12-23T05:23:16.077Z,0.95
2022-12-23T05:26:01.816Z,1.42
2022-12-23T05:28:47.547Z,1.08
2022-12-23T05:31:33.380Z,1.23
2022-12-23T05:34:18.909Z,1.70
2022-12-23T05:37:04.253Z,1.75
2022-12-23T05:39:49.501Z,1.80
2022-12-23T05:42:34.861Z,1.90
2022-12-23T05:45:20.934Z,1.83
2022-12-23T05:48:07.321Z,2.08
2022-12-23T05:50:53.568Z,2.08
2022-12-23T05:53:39.067Z,1.70
2022-12-23T05:56:24.540Z,1.02
2022-12-23T05:59:09.984Z,1.42
2022-12-23T06:01:55.254Z,1.15
2022-12-23T06:04:40.861Z,1.20
2022-12-23T06:07:26.308Z,1.10
2022-12-23T06:10:12.482Z,1.05
2022-12-23T06:12:58.196Z,0.95
2022-12-23T06:15:43.623Z,1.00
2022-12-23T06:18:28.961Z,0.98
2022-12-23T06:21:14.454Z,1.25
2022-12-23T06:24:00.232Z,1.08
2022-12-23T06:26:45.945Z,1.10
2022-12-23T06:29:31.569Z,0.93
2022-12-23T06:32:17.510Z,1.08
2022-12-23T06:35:02.892Z,1.58
2022-12-23T06:37:48.605Z,0.80
2022-12-23T06:40:34.529Z,1.10
2022-12-23T06:43:19.931Z,1.35
2022-12-23T06:46:05.790Z,0.77
2022-12-23T06:48:51.697Z,0.90
2022-12-23T06:51:37.210Z,0.88
2022-12-23T06:54:23.067Z,1.00
2022-12-23T06:57:08.777Z,0.85
2022-12-23T06:59:54.645Z,1.38
2022-12-23T07:02:40.789Z,0.90
2022-12-23T07:05:29.476Z,1.13
2022-12-23T07:08:20.025Z,1.05
2022-12-23T07:11:05.711Z,1.25
2022-12-23T07:13:51.295Z,0.95
2022-12-23T07:16:36.961Z,0.88
2022-12-23T07:19:22.728Z,1.20
2022-12-23T07:22:10.408Z,1.90
2022-12-23T07:24:55.892Z,1.08
2022-12-23T07:27:41.305Z,0.93
2022-12-23T07:30:26.793Z,0.93
2022-12-23T07:33:12.435Z,1.38
2022-12-23T07:35:59.083Z,1.33
2022-12-23T07:38:44.887Z,1.23
2022-12-23T07:41:30.616Z,1.20
2022-12-23T07:44:22.894Z,1.38
2022-12-23T07:47:08.887Z,1.30
2022-12-23T07:49:54.619Z,1.02
2022-12-23T07:52:40.267Z,1.05
2022-12-23T07:55:25.723Z,1.35
2022-12-23T07:58:11.563Z,0.55
2022-12-23T08:01:05.672Z,1.45
2022-12-23T08:03:51.315Z,1.05
2022-12-23T08:06:37.071Z,1.42
2022-12-23T08:09:22.856Z,1.23
2022-12-23T08:12:08.613Z,1.33
2022-12-23T08:14:54.381Z,1.45
2022-12-23T08:17:40.317Z,1.38
2022-12-23T08:20:25.841Z,1.00
2022-12-23T08:23:11.359Z,1.30
2022-12-23T08:26:10.458Z,2.05
2022-12-23T08:28:56.138Z,1.40
2022-12-23T08:31:41.774Z,1.13
2022-12-23T08:34:27.637Z,1.73
2022-12-23T08:37:13.737Z,1.48
2022-12-23T08:39:59.366Z,1.85
2022-12-23T08:42:44.773Z,3.95
2022-12-23T08:45:30.271Z,2.67
2022-12-23T08:48:15.774Z,2.17
2022-12-23T08:51:07.587Z,2.53
2022-12-23T08:54:00.945Z,1.60
2022-12-23T08:56:47.135Z,1.70
2022-12-23T08:59:33.055Z,3.38
2022-12-23T09:02:19.304Z,2.42
2022-12-23T09:05:05.728Z,1.83
2022-12-23T09:07:51.516Z,2.15
2022-12-23T09:10:44.983Z,1.35
2022-12-23T09:13:35.082Z,0.88
2022-12-23T09:16:22.336Z,1.13
2022-12-23T09:19:08.089Z,1.08
2022-12-23T09:21:53.610Z,1.20
2022-12-23T09:24:39.007Z,0.88
2022-12-23T09:27:24.354Z,1.35
2022-12-23T09:30:10.699Z,1.40
2022-12-23T09:32:56.368Z,1.30
2022-12-23T09:35:41.718Z,1.20
2022-12-23T09:38:27.293Z,1.23
2022-12-23T09:41:21.604Z,1.27
2022-12-23T09:44:19.366Z,1.52
2022-12-23T09:47:08.427Z,0.88
2022-12-23T09:49:58.571Z,1.00
2022-12-23T09:53:15.803Z,1.20
2022-12-23T09:56:13.666Z,1.08
2022-12-23T09:59:36.207Z,1.08
2022-12-23T10:05:25.094Z,1.17
2022-12-23T10:08:33.935Z,1.30
2022-12-23T10:11:26.534Z,1.15
2022-12-23T10:17:16.374Z,1.55
2022-12-23T10:22:48.190Z,1.08
2022-12-23T10:25:41.301Z,1.30
2022-12-23T10:28:29.758Z,1.13
2022-12-23T10:31:39.719Z,1.13
2022-12-23T10:35:00.114Z,1.27
2022-12-23T10:37:55.324Z,1.30
2022-12-23T10:40:46.917Z,1.20
2022-12-23T10:43:35.935Z,1.25
2022-12-23T10:46:21.698Z,1.25
2022-12-23T10:49:34.653Z,1.17
2022-12-23T10:52:27.667Z,1.05
2022-12-23T10:55:33.436Z,1.15
2022-12-23T10:58:20.723Z,1.75
2022-12-23T11:01:14.130Z,1.42
2022-12-23T11:04:06.441Z,2.25
2022-12-23T11:07:18.382Z,2.13
2022-12-23T11:10:02.710Z,3.53
2022-12-23T11:12:50.998Z,4.85
2022-12-23T11:15:41.582Z,2.85
2022-12-23T11:18:26.890Z,4.20
2022-12-23T11:21:15.266Z,3.65
2022-12-23T11:24:14.463Z,4.80
2022-12-23T11:27:03.633Z,2.53
2022-12-23T11:29:52.394Z,2.60
2022-12-23T11:32:38.114Z,4.90
2022-12-23T11:35:32.081Z,3.83
2022-12-23T11:38:17.416Z,4.57
2022-12-23T11:41:05.267Z,3.15
2022-12-23T11:44:32.639Z,2.92
2022-12-23T11:47:25.687Z,4.28
2022-12-23T11:50:20.753Z,4.63
2022-12-23T11:53:25.300Z,2.63
2022-12-23T11:56:14.910Z,2.45
2022-12-23T11:59:05.931Z,2.78
2022-12-23T12:01:51.380Z,6.10
2022-12-23T12:04:38.099Z,4.32
2022-12-23T12:07:23.894Z,10.20
2022-12-23T12:10:31.935Z,10.55
2022-12-23T12:13:26.275Z,6.43
2022-12-23T12:16:30.682Z,2.72
2022-12-23T12:19:48.838Z,1.73
2022-12-23T12:22:55.651Z,3.40
2022-12-23T12:25:55.499Z,2.53
2022-12-23T12:28:44.319Z,3.92
2022-12-23T12:31:42.973Z,1.90
2022-12-23T12:34:41.972Z,2.80
2022-12-23T12:37:39.339Z,3.65
2022-12-23T12:40:38.010Z,3.25
2022-12-23T12:43:23.692Z,3.25
2022-12-23T12:46:24.766Z,4.00
2022-12-23T12:49:30.626Z,3.17
2022-12-23T12:52:20.707Z,2.30
2022-12-23T12:55:25.295Z,2.25
2022-12-23T12:58:19.820Z,3.63
2022-12-23T13:01:14.495Z,27.25
2022-12-23T13:04:32.077Z,11.77
2022-12-23T13:07:39.517Z,19.77
2022-12-23T13:10:49.444Z,27.65
2022-12-23T13:14:23.171Z,9.90
2022-12-23T13:17:32.712Z,14.27
2022-12-23T13:20:41.108Z,4.93
2022-12-23T13:23:45.477Z,4.28
2022-12-23T13:26:40.123Z,7.35
2022-12-23T13:29:59.590Z,3.42
2022-12-23T13:32:54.283Z,6.57
2022-12-23T13:36:06.194Z,13.05
2022-12-23T13:39:17.306Z,5.10
2022-12-23T13:42:06.104Z,3.90
2022-12-23T13:44:53.057Z,2.63
2022-12-23T13:48:02.706Z,5.22
2022-12-23T13:51:12.311Z,4.78
2022-12-23T13:54:35.352Z,3.60
2022-12-23T13:57:48.746Z,4.65
2022-12-23T14:00:35.311Z,7.18
2022-12-23T14:03:25.108Z,7.35
2022-12-23T14:06:29.021Z,3.97
2022-12-23T14:09:16.747Z,5.93
2022-12-23T14:12:29.832Z,4.72
2022-12-23T14:15:42.994Z,2.88
2022-12-23T14:18:46.806Z,4.10
2022-12-23T14:22:00.326Z,5.78
2022-12-23T14:25:22.392Z,7.88
2022-12-23T14:28:07.789Z,13.63
2022-12-23T14:30:53.378Z,5.18
2022-12-23T14:33:38.914Z,22.52
2022-12-23T14:36:26.600Z,26.02
2022-12-23T14:39:11.857Z,8.73
2022-12-23T14:42:03.474Z,13.15
2022-12-23T14:44:51.790Z,7.43
2022-12-23T14:47:40.653Z,10.07
2022-12-23T14:50:55.982Z,4.70
2022-12-23T14:54:00.115Z,7.00
2022-12-23T14:57:07.631Z,3.85
2022-12-23T15:00:01.695Z,4.63
2022-12-23T15:02:47.434Z,4.40
2022-12-23T15:05:39.091Z,2.92
2022-12-23T15:08:42.176Z,5.28
2022-12-23T15:11:31.701Z,8.30
2022-12-23T15:14:30.099Z,4.32
2022-12-23T15:17:27.614Z,5.85
2022-12-23T15:20:20.819Z,4.00
2022-12-23T15:23:16.950Z,4.65
2022-12-23T15:26:03.253Z,4.35
2022-12-23T15:28:48.806Z,3.13
2022-12-23T15:31:40.422Z,8.23
2022-12-23T15:34:35.271Z,6.25
2022-12-23T15:37:30.160Z,13.02
2022-12-23T15:40:42.271Z,6.93
2022-12-23T15:43:28.328Z,8.45
2022-12-23T15:46:29.174Z,14.38
2022-12-23T15:49:16.768Z,5.05
2022-12-23T15:52:09.689Z,4.97
2022-12-23T15:54:59.973Z,5.45
2022-12-23T15:57:50.451Z,5.00
2022-12-23T16:00:41.126Z,3.95
2022-12-23T16:03:40.550Z,4.10
2022-12-23T16:06:36.424Z,3.05
2022-12-23T16:09:29.975Z,3.95
2022-12-23T16:12:20.783Z,5.80
2022-12-23T16:15:25.877Z,5.10
2022-12-23T16:18:14.336Z,10.55
2022-12-23T16:21:05.912Z,19.70
2022-12-23T16:23:53.315Z,8.40
2022-12-23T16:26:43.175Z,8.32
2022-12-23T16:29:28.815Z,11.82
2022-12-23T16:32:17.223Z,11.73
2022-12-23T16:35:11.300Z,6.38
2022-12-23T16:37:59.996Z,5.95
2022-12-23T16:40:56.606Z,4.63
2022-12-23T16:43:51.265Z,4.13
2022-12-23T16:46:42.036Z,4.45
2022-12-23T16:49:33.839Z,3.88
2022-12-23T16:52:20.159Z,4.20
2022-12-23T16:55:14.788Z,5.25
2022-12-23T16:58:00.404Z,4.25
2022-12-23T17:00:46.349Z,5.05
2022-12-23T17:03:35.408Z,3.72
2022-12-23T17:06:21.817Z,4.57
2022-12-23T17:09:08.329Z,4.43
2022-12-23T17:11:54.355Z,4.25
2022-12-23T17:14:40.190Z,4.03
2022-12-23T17:17:26.172Z,4.80
2022-12-23T17:20:13.042Z,5.25
2022-12-23T17:23:00.193Z,10.02
2022-12-23T17:25:45.637Z,6.97
2022-12-23T17:28:32.942Z,4.72
2022-12-23T17:31:26.486Z,5.40
2022-12-23T17:34:19.664Z,6.43
2022-12-23T17:37:23.343Z,5.40
2022-12-23T17:40:12.833Z,4.57
2022-12-23T17:42:58.408Z,7.97
2022-12-23T17:45:45.600Z,7.07
2022-12-23T17:48:31.981Z,7.90
2022-12-23T17:51:20.020Z,4.60
2022-12-23T17:54:06.643Z,8.95
2022-12-23T17:56:53.125Z,6.60
2022-12-23T17:59:38.763Z,11.70
2022-12-23T18:02:33.128Z,32.45
2022-12-23T18:05:18.519Z,24.95
2022-12-23T18:08:04.107Z,20.13
2022-12-23T18:10:49.894Z,12.15
2022-12-23T18:13:36.501Z,14.30
2022-12-23T18:16:22.114Z,14.18
2022-12-23T18:19:17.080Z,15.07
2022-12-23T18:22:02.401Z,13.88
2022-12-23T18:24:52.481Z,20.67
2022-12-23T18:27:41.085Z,92.88
2022-12-23T18:30:26.749Z,28.38
2022-12-23T18:33:13.267Z,24.35
2022-12-23T18:35:58.889Z,14.57
2022-12-23T18:38:44.182Z,25.27
2022-12-23T18:41:29.530Z,31.55
2022-12-23T18:44:21.717Z,26.30
2022-12-23T18:47:07.413Z,18.00
2022-12-23T18:49:53.420Z,28.42
2022-12-23T18:52:38.849Z,43.85
2022-12-23T18:55:24.658Z,33.78
2022-12-23T18:58:13.295Z,34.10
2022-12-23T19:00:58.935Z,31.55
2022-12-23T19:03:45.610Z,22.35
2022-12-23T19:06:30.928Z,16.33
2022-12-23T19:09:21.357Z,25.00
2022-12-23T19:12:06.953Z,21.70
2022-12-23T19:14:52.556Z,14.10
2022-12-23T19:17:38.388Z,14.10
2022-12-23T19:20:23.772Z,12.85
2022-12-23T19:23:09.864Z,24.35
2022-12-23T19:25:55.806Z,10.85
2022-12-23T19:28:41.937Z,23.33
2022-12-23T19:31:30.046Z,20.98
2022-12-23T19:34:16.121Z,11.43
2022-12-23T19:37:01.449Z,24.95
2022-12-23T19:39:47.276Z,12.80
2022-12-23T19:42:34.057Z,14.18
2022-12-23T19:45:19.358Z,9.38
2022-12-23T19:48:05.197Z,27.17
2022-12-23T19:51:07.110Z,9.15
2022-12-23T19:53:52.956Z,19.42
2022-12-23T19:56:38.974Z,14.00
2022-12-23T19:59:24.919Z,17.85
2022-12-23T20:02:15.715Z,14.30
2022-12-23T20:05:01.303Z,16.60
2022-12-23T20:07:47.217Z,16.23
2022-12-23T20:10:32.876Z,14.05
2022-12-23T20:13:18.558Z,9.38
2022-12-23T20:16:05.598Z,12.27
2022-12-23T20:18:51.569Z,7.35
2022-12-23T20:21:37.673Z,6.10
2022-12-23T20:24:23.071Z,4.93
2022-12-23T20:27:11.737Z,10.90
2022-12-23T20:29:58.965Z,11.35
2022-12-23T20:32:44.281Z,7.63
2022-12-23T20:35:32.673Z,17.83
2022-12-23T20:38:18.428Z,8.82
2022-12-23T20:41:04.459Z,8.27
2022-12-23T20:44:23.265Z,7.47
2022-12-23T20:46:56.126Z,6.85
2022-12-23T20:49:41.899Z,8.13
2022-12-23T20:52:27.276Z,8.82
2022-12-23T20:55:12.873Z,7.07
2022-12-23T20:58:18.107Z,5.88
2022-12-23T21:01:12.426Z,7.30
2022-12-23T21:04:00.508Z,4.00
2022-12-23T21:06:46.062Z,5.13
2022-12-23T21:09:31.936Z,7.25
2022-12-23T21:12:17.812Z,7.68
2022-12-23T21:15:03.812Z,7.10
2022-12-23T21:17:49.484Z,6.28
2022-12-23T21:20:37.133Z,6.18
2022-12-23T21:23:22.631Z,19.63
2022-12-23T21:26:12.533Z,55.72
2022-12-23T21:29:00.549Z,31.67
2022-12-23T21:31:46.452Z,18.42
2022-12-23T21:34:32.122Z,22.77
2022-12-23T21:37:17.508Z,17.55
2022-12-23T21:40:03.192Z,18.05
2022-12-23T21:42:48.855Z,14.02
2022-12-23T21:45:35.599Z,18.10
2022-12-23T21:48:21.266Z,12.65
2022-12-23T21:51:11.703Z,8.68
2022-12-23T21:53:58.570Z,9.52
2022-12-23T21:56:43.984Z,7.82
2022-12-23T21:59:34.790Z,5.53
2022-12-23T22:02:21.400Z,7.70
2022-12-23T22:05:07.685Z,5.32
2022-12-23T22:07:53.217Z,4.07
2022-12-23T22:10:38.915Z,4.90
2022-12-23T22:13:26.357Z,4.07
2022-12-23T22:16:15.074Z,3.95
2022-12-23T22:19:01.827Z,4.53
2022-12-23T22:21:47.370Z,4.32
2022-12-23T22:24:32.683Z,4.13
2022-12-23T22:27:18.171Z,3.20
2022-12-23T22:30:03.938Z,2.88
2022-12-23T22:32:49.638Z,2.85
2022-12-23T22:35:35.146Z,3.28
2022-12-23T22:38:20.583Z,3.08
2022-12-23T22:41:06.188Z,2.85
2022-12-23T22:43:51.918Z,2.65
2022-12-23T22:46:37.864Z,2.53
2022-12-23T22:49:23.297Z,3.03
2022-12-23T22:52:09.217Z,2.47
2022-12-23T22:54:54.822Z,2.20
2022-12-23T22:57:41.028Z,2.67
2022-12-23T23:00:26.918Z,2.78
2022-12-23T23:03:12.390Z,3.00
2022-12-23T23:06:06.103Z,3.25
2022-12-23T23:08:52.688Z,2.67
2022-12-23T23:11:40.773Z,3.42
2022-12-23T23:14:26.535Z,3.72
2022-12-23T23:17:12.179Z,3.17
2022-12-23T23:19:58.105Z,2.28
2022-12-23T23:22:44.653Z,3.30
2022-12-23T23:25:30.186Z,2.13
2022-12-23T23:28:16.295Z,2.67
2022-12-23T23:31:32.063Z,1.77
2022-12-23T23:34:08.035Z,2.72
2022-12-23T23:36:53.645Z,3.30
2022-12-23T23:39:39.036Z,1.55
2022-12-23T23:42:24.701Z,2.20
2022-12-23T23:45:10.732Z,2.40
2022-12-23T23:47:56.436Z,1.92
2022-12-23T23:50:42.784Z,1.67
2022-12-23T23:53:28.411Z,1.67
2022-12-23T23:56:14.043Z,2.08
2022-12-23T23:58:59.944Z,2.08
